FMNM/MJN METAR and TAF weather

Enter ICAO airport designator
Station Type Date Time Source
FMNM METAR 2021/03/03 03:00 UTC NOAA

FMNM 030300Z 12005KT 090V150 9999 FEW020CB SCT040 25/23 Q1009 NOSIG


Station Type Date Time Source
FMNM Decoded METAR 2021/03/03 03:00 UTC NOAA

Majunga, Madagascar (FMNM) 15-40S 046-21E 18M
Mar 02, 2021 - 10:00 PM EST / 2021.03.03 0300 UTC
Wind: from the ESE (120 degrees) at 6 MPH (5 KT) (direction variable):0
Visibility: greater than 7 mile(s):0
Sky conditions: partly cloudy
Weather: Cumulonimbus clouds observed
Temperature: 77 F (25 C)
Dew Point: 73 F (23 C)
Relative Humidity: 88%
Pressure (altimeter): 29.80 in. Hg (1009 hPa)
ob: FMNM 030300Z 12005KT 090V150 9999 FEW020CB SCT040 25/23 Q1009 NOSIG
cycle: 3

Station Type Date Time Source
FMNM TAF 2021/03/02 18:06 UTC NOAA

TAF FMNM 021700Z 0218/0318 14005KT 9999 SCT020CB PROB30
TEMPO 0300/0306 4500 TSRA
BECMG 0308/0310 32010KT PROB40
TEMPO 0312/0318 4000 TSRA

Example: see airport list